Nrc Patriot II — WDA8587 — position and weather

sailwx.info

Track history (hours):
 
Tides and Currents Weather Stations Pressure Air Temp Water Temp Dewpoint Dewpoint Depression Visibility Wind Speed Wind Dir Waves Ship Positions

Nrc Patriot II

Owner: National Response Corporation, The Woodlands, TX. More information available from US FCC via Universal Licensing System and Coast Guard Vessel Documentation Center.

Last reported at 2016-Jun-24 08:33 UTC. Time now 2016-Jun-25 10:45 UTC.
Position N 34°10' W 119°13'.

Length 30 m; draft 3.5 m.

Type: Port tender. MMSI: 366855940.

Date/timePositionNaut miles runAvg speedWind from/ knotsBaromVisibWave heightAir tempDewpointWater temp
2016-Jun-24 08:33N 34°10' W 119°13'0 0.0
2016-Jun-24 02:05N 34°10' W 119°13'0 0.0
2016-Jun-24 01:26N 34°10' W 119°13'0 0.0
2016-Jun-24 00:33N 34°10' W 119°13'0 0.0
2016-Jun-23 02:33N 34°10' W 119°13'2 0.2
2016-Jun-22 17:33N 34°09' W 119°15'2 0.1
2016-Jun-21 20:31N 34°10' W 119°13'0 0.0
2016-Jun-21 19:33N 34°10' W 119°13'0 0.0
2016-Jun-21 18:34N 34°10' W 119°13'0 0.0
2016-Jun-21 17:33N 34°10' W 119°13'0 0.0
2016-Jun-21 16:14N 34°10' W 119°13'0 0.0
2016-Jun-21 15:19N 34°10' W 119°13'0 0.0
2016-Jun-21 10:22N 34°10' W 119°13'0 0.0
2016-Jun-21 09:18N 34°10' W 119°13'0 0.0
2016-Jun-21 08:34N 34°10' W 119°13'0 0.0
2016-Jun-21 07:10N 34°10' W 119°13'0 0.0
2016-Jun-21 06:33N 34°10' W 119°13'0 0.0
2016-Jun-21 04:33N 34°10' W 119°13'0 0.0
2016-Jun-21 03:21N 34°10' W 119°13'0 0.0
2016-Jun-20 21:11N 34°10' W 119°13'0 0.0
2016-Jun-20 20:33N 34°10' W 119°13'0 0.0
2016-Jun-20 05:33N 34°10' W 119°13'0 0.0
2016-Jun-20 04:13N 34°10' W 119°13'0 0.0
2016-Jun-18 16:14N 34°10' W 119°13'0 0.0
2016-Jun-16 22:27N 34°10' W 119°13'55 1.7
2016-Jun-15 13:23N 33°43' W 118°15'1 1.8
2016-Jun-15 12:33N 33°44' W 118°16'0 0.0
2016-Jun-15 11:31N 33°44' W 118°16'0 0.0
2016-Jun-15 10:25N 33°44' W 118°16'0 0.0
2016-Jun-15 08:23N 33°44' W 118°16'0 0.0
2016-Jun-14 22:33N 33°44' W 118°16'0 0.1
2016-Jun-14 18:15N 33°44' W 118°16'0 0.5
2016-Jun-14 17:33N 33°44' W 118°16'0 0.0
2016-Jun-14 16:32N 33°44' W 118°16'0 0.0
2016-Jun-14 15:25N 33°44' W 118°16'0 0.0
2016-Jun-14 13:31N 33°44' W 118°16'0 0.0
2016-Jun-14 11:31N 33°44' W 118°16'0 0.0
2016-Jun-14 09:23N 33°44' W 118°16'  
Track history (hours):
 
Tides and Currents Weather Stations Pressure Air Temp Water Temp Dewpoint Dewpoint Depression Visibility Wind Speed Wind Dir Waves Ship Positions

Nrc Patriot II

Owner: National Response Corporation, The Woodlands, TX. More information available from US FCC via Universal Licensing System and Coast Guard Vessel Documentation Center.

Last reported at 2016-Jun-24 08:33 UTC. Time now 2016-Jun-25 10:45 UTC.
Position N 34°10' W 119°13'.

Length 30 m; draft 3.5 m.

Type: Port tender. MMSI: 366855940.

Date/timePositionNaut miles runAvg speedWind from/ knotsBaromVisibWave heightAir tempDewpointWater temp
2016-Jun-24 08:33N 34°10' W 119°13'0 0.0
2016-Jun-24 02:05N 34°10' W 119°13'0 0.0
2016-Jun-24 01:26N 34°10' W 119°13'0 0.0
2016-Jun-24 00:33N 34°10' W 119°13'0 0.0
2016-Jun-23 02:33N 34°10' W 119°13'2 0.2
2016-Jun-22 17:33N 34°09' W 119°15'2 0.1
2016-Jun-21 20:31N 34°10' W 119°13'0 0.0
2016-Jun-21 19:33N 34°10' W 119°13'0 0.0
2016-Jun-21 18:34N 34°10' W 119°13'0 0.0
2016-Jun-21 17:33N 34°10' W 119°13'0 0.0
2016-Jun-21 16:14N 34°10' W 119°13'0 0.0
2016-Jun-21 15:19N 34°10' W 119°13'0 0.0
2016-Jun-21 10:22N 34°10' W 119°13'0 0.0
2016-Jun-21 09:18N 34°10' W 119°13'0 0.0
2016-Jun-21 08:34N 34°10' W 119°13'0 0.0
2016-Jun-21 07:10N 34°10' W 119°13'0 0.0
2016-Jun-21 06:33N 34°10' W 119°13'0 0.0
2016-Jun-21 04:33N 34°10' W 119°13'0 0.0
2016-Jun-21 03:21N 34°10' W 119°13'0 0.0
2016-Jun-20 21:11N 34°10' W 119°13'0 0.0
2016-Jun-20 20:33N 34°10' W 119°13'0 0.0
2016-Jun-20 05:33N 34°10' W 119°13'0 0.0
2016-Jun-20 04:13N 34°10' W 119°13'0 0.0
2016-Jun-18 16:14N 34°10' W 119°13'0 0.0
2016-Jun-16 22:27N 34°10' W 119°13'55 1.7
2016-Jun-15 13:23N 33°43' W 118°15'1 1.8
2016-Jun-15 12:33N 33°44' W 118°16'0 0.0
2016-Jun-15 11:31N 33°44' W 118°16'0 0.0
2016-Jun-15 10:25N 33°44' W 118°16'0 0.0
2016-Jun-15 08:23N 33°44' W 118°16'0 0.0
2016-Jun-14 22:33N 33°44' W 118°16'0 0.1
2016-Jun-14 18:15N 33°44' W 118°16'0 0.5
2016-Jun-14 17:33N 33°44' W 118°16'0 0.0
2016-Jun-14 16:32N 33°44' W 118°16'0 0.0
2016-Jun-14 15:25N 33°44' W 118°16'0 0.0
2016-Jun-14 13:31N 33°44' W 118°16'0 0.0
2016-Jun-14 11:31N 33°44' W 118°16'0 0.0
2016-Jun-14 09:23N 33°44' W 118°16'  

Dump ship's entire track history